sensor_id;sensor_type;location;lat;lon;timestamp;pressure;altitude;pressure_sealevel;temperature;humidity
5996;BME280;3026;53.612;7.278;2023-02-02T00:01:44;101481.91;;;6.94;100.00
5996;BME280;3026;53.612;7.278;2023-02-02T00:04:15;101487.34;;;6.94;100.00
5996;BME280;3026;53.612;7.278;2023-02-02T00:06:42;101484.91;;;6.91;100.00
5996;BME280;3026;53.612;7.278;2023-02-02T00:09:12;101483.91;;;6.92;100.00
5996;BME280;3026;53.612;7.278;2023-02-02T00:11:40;101482.19;;;6.91;100.00
5996;BME280;3026;53.612;7.278;2023-02-02T00:14:07;101496.75;;;6.90;100.00
5996;BME280;3026;53.612;7.278;2023-02-02T00:16:37;101510.28;;;6.90;100.00
5996;BME280;3026;53.612;7.278;2023-02-02T00:19:08;101505.88;;;6.89;100.00
5996;BME280;3026;53.612;7.278;2023-02-02T00:21:35;101503.16;;;6.89;100.00
5996;BME280;3026;53.612;7.278;2023-02-02T00:24:04;101503.88;;;6.91;100.00
5996;BME280;3026;53.612;7.278;2023-02-02T00:26:31;101501.88;;;6.93;100.00
5996;BME280;3026;53.612;7.278;2023-02-02T00:28:58;101518.16;;;6.93;100.00
5996;BME280;3026;53.612;7.278;2023-02-02T00:31:25;101510.03;;;6.93;100.00
5996;BME280;3026;53.612;7.278;2023-02-02T00:33:53;101510.44;;;6.89;100.00
5996;BME280;3026;53.612;7.278;2023-02-02T00:36:21;101507.31;;;6.93;100.00
5996;BME280;3026;53.612;7.278;2023-02-02T00:38:49;101515.44;;;6.93;100.00
5996;BME280;3026;53.612;7.278;2023-02-02T00:41:17;101518.16;;;6.93;100.00
5996;BME280;3026;53.612;7.278;2023-02-02T00:43:44;101522.72;;;6.93;100.00
5996;BME280;3026;53.612;7.278;2023-02-02T00:46:32;101522.13;;;6.89;100.00
5996;BME280;3026;53.612;7.278;2023-02-02T00:48:58;101528.28;;;6.91;100.00
5996;BME280;3026;53.612;7.278;2023-02-02T00:51:26;101522.13;;;6.89;100.00
5996;BME280;3026;53.612;7.278;2023-02-02T00:53:53;101523.00;;;6.90;100.00
5996;BME280;3026;53.612;7.278;2023-02-02T00:56:20;101524.84;;;6.89;100.00
5996;BME280;3026;53.612;7.278;2023-02-02T00:58:47;101520.41;;;6.88;100.00
5996;BME280;3026;53.612;7.278;2023-02-02T01:01:15;101522.13;;;6.89;100.00
5996;BME280;3026;53.612;7.278;2023-02-02T01:03:42;101527.56;;;6.89;100.00
5996;BME280;3026;53.612;7.278;2023-02-02T01:06:08;101526.56;;;6.90;100.00
5996;BME280;3026;53.612;7.278;2023-02-02T01:08:37;101538.13;;;6.92;100.00
5996;BME280;3026;53.612;7.278;2023-02-02T01:11:04;101541.84;;;6.91;100.00
5996;BME280;3026;53.612;7.278;2023-02-02T01:13:31;101540.13;;;6.90;100.00
5996;BME280;3026;53.612;7.278;2023-02-02T01:15:59;101545.53;;;6.90;100.00
5996;BME280;3026;53.612;7.278;2023-02-02T01:18:28;101548.25;;;6.90;100.00
5996;BME280;3026;53.612;7.278;2023-02-02T01:20:59;101545.53;;;6.90;100.00
5996;BME280;3026;53.612;7.278;2023-02-02T01:23:26;101547.53;;;6.88;100.00
5996;BME280;3026;53.612;7.278;2023-02-02T01:25:55;101539.19;;;6.80;100.00
5996;BME280;3026;53.612;7.278;2023-02-02T01:28:23;101551.75;;;6.81;100.00
5996;BME280;3026;53.612;7.278;2023-02-02T01:30:50;101557.44;;;6.78;100.00
5996;BME280;3026;53.612;7.278;2023-02-02T01:33:18;101552.28;;;6.75;100.00
5996;BME280;3026;53.612;7.278;2023-02-02T01:35:45;101559.69;;;6.73;100.00
5996;BME280;3026;53.612;7.278;2023-02-02T01:38:12;101556.22;;;6.71;100.00
5996;BME280;3026;53.612;7.278;2023-02-02T01:40:44;101564.47;;;6.69;100.00
5996;BME280;3026;53.612;7.278;2023-02-02T01:43:20;101565.34;;;6.70;100.00
5996;BME280;3026;53.612;7.278;2023-02-02T01:45:48;101556.50;;;6.68;100.00
5996;BME280;3026;53.612;7.278;2023-02-02T01:48:15;101561.41;;;6.74;100.00
5996;BME280;3026;53.612;7.278;2023-02-02T01:50:44;101569.53;;;6.74;100.00
5996;BME280;3026;53.612;7.278;2023-02-02T01:53:11;101561.41;;;6.74;100.00
5996;BME280;3026;53.612;7.278;2023-02-02T01:55:39;101573.97;;;6.75;100.00
5996;BME280;3026;53.612;7.278;2023-02-02T01:58:09;101561.41;;;6.74;100.00
5996;BME280;3026;53.612;7.278;2023-02-02T02:00:40;101565.09;;;6.73;100.00
5996;BME280;3026;53.612;7.278;2023-02-02T02:03:10;101574.22;;;6.72;100.00
5996;BME280;3026;53.612;7.278;2023-02-02T02:05:42;101570.66;;;6.71;100.00
5996;BME280;3026;53.612;7.278;2023-02-02T02:08:13;101574.47;;;6.69;100.00
5996;BME280;3026;53.612;7.278;2023-02-02T02:10:41;101583.31;;;6.71;100.00
5996;BME280;3026;53.612;7.278;2023-02-02T02:13:08;101580.75;;;6.69;100.00
5996;BME280;3026;53.612;7.278;2023-02-02T02:15:46;101583.31;;;6.71;100.00
5996;BME280;3026;53.612;7.278;2023-02-02T02:18:46;101587.03;;;6.70;100.00
5996;BME280;3026;53.612;7.278;2023-02-02T02:21:40;101589.75;;;6.70;100.00
5996;BME280;3026;53.612;7.278;2023-02-02T02:33:59;101587.03;;;6.70;100.00
5996;BME280;3026;53.612;7.278;2023-02-02T02:36:37;101587.03;;;6.70;100.00
5996;BME280;3026;53.612;7.278;2023-02-02T02:39:15;101581.16;;;6.65;100.00
5996;BME280;3026;53.612;7.278;2023-02-02T02:41:48;101593.69;;;6.66;100.00
5996;BME280;3026;53.612;7.278;2023-02-02T02:44:21;101600.13;;;6.65;100.00
5996;BME280;3026;53.612;7.278;2023-02-02T02:46:50;101592.97;;;6.64;100.00
5996;BME280;3026;53.612;7.278;2023-02-02T02:49:18;101607.97;;;6.68;100.00
5996;BME280;3026;53.612;7.278;2023-02-02T02:51:48;101608.25;;;6.65;100.00
5996;BME280;3026;53.612;7.278;2023-02-02T02:54:18;101607.25;;;6.66;100.00
5996;BME280;3026;53.612;7.278;2023-02-02T02:56:59;101613.53;;;6.66;100.00
5996;BME280;3026;53.612;7.278;2023-02-02T02:59:36;101615.38;;;6.66;100.00
5996;BME280;3026;53.612;7.278;2023-02-02T03:02:29;101621.31;;;6.60;100.00
5996;BME280;3026;53.612;7.278;2023-02-02T03:05:07;101625.75;;;6.61;100.00
5996;BME280;3026;53.612;7.278;2023-02-02T03:07:40;101614.16;;;6.59;100.00
5996;BME280;3026;53.612;7.278;2023-02-02T03:10:11;101622.28;;;6.59;100.00
5996;BME280;3026;53.612;7.278;2023-02-02T03:12:45;101617.13;;;6.56;100.00
5996;BME280;3026;53.612;7.278;2023-02-02T03:15:13;101615.41;;;6.55;100.00
5996;BME280;3026;53.612;7.278;2023-02-02T03:17:40;101622.81;;;6.53;100.00
5996;BME280;3026;53.612;7.278;2023-02-02T03:20:10;101617.41;;;6.53;100.00
5996;BME280;3026;53.612;7.278;2023-02-02T03:22:37;101615.69;;;6.52;100.00
5996;BME280;3026;53.612;7.278;2023-02-02T03:25:04;101616.41;;;6.54;100.00
5996;BME280;3026;53.612;7.278;2023-02-02T03:27:31;101630.81;;;6.54;100.00
5996;BME280;3026;53.612;7.278;2023-02-02T03:29:59;101627.25;;;6.54;100.00
5996;BME280;3026;53.612;7.278;2023-02-02T03:32:25;101626.25;;;6.55;100.00
5996;BME280;3026;53.612;7.278;2023-02-02T03:34:53;101635.38;;;6.54;100.00
5996;BME280;3026;53.612;7.278;2023-02-02T03:37:21;101640.06;;;6.52;100.00
5996;BME280;3026;53.612;7.278;2023-02-02T03:39:48;101632.81;;;6.52;100.00
5996;BME280;3026;53.612;7.278;2023-02-02T03:42:14;101629.97;;;6.54;100.00
5996;BME280;3026;53.612;7.278;2023-02-02T03:44:41;101628.25;;;6.53;100.00
5996;BME280;3026;53.612;7.278;2023-02-02T03:47:15;101637.34;;;6.52;100.00
5996;BME280;3026;53.612;7.278;2023-02-02T03:49:41;101641.06;;;6.51;100.00
5996;BME280;3026;53.612;7.278;2023-02-02T03:52:09;101637.34;;;6.52;100.00
5996;BME280;3026;53.612;7.278;2023-02-02T03:54:37;101646.47;;;6.51;100.00
5996;BME280;3026;53.612;7.278;2023-02-02T03:57:03;101641.28;;;6.48;100.00
5996;BME280;3026;53.612;7.278;2023-02-02T03:59:31;101641.06;;;6.51;100.00
5996;BME280;3026;53.612;7.278;2023-02-02T04:01:58;101636.13;;;6.44;100.00
5996;BME280;3026;53.612;7.278;2023-02-02T04:04:25;101638.97;;;6.43;100.00
5996;BME280;3026;53.612;7.278;2023-02-02T04:06:51;101645.84;;;6.47;100.00
5996;BME280;3026;53.612;7.278;2023-02-02T04:09:19;101652.13;;;6.48;100.00
5996;BME280;3026;53.612;7.278;2023-02-02T04:11:47;101652.13;;;6.48;100.00
5996;BME280;3026;53.612;7.278;2023-02-02T04:14:14;101653.38;;;6.43;100.00
5996;BME280;3026;53.612;7.278;2023-02-02T04:16:41;101646.13;;;6.44;100.00
5996;BME280;3026;53.612;7.278;2023-02-02T04:19:08;101669.50;;;6.45;100.00
5996;BME280;3026;53.612;7.278;2023-02-02T04:21:37;101662.38;;;6.44;100.00
5996;BME280;3026;53.612;7.278;2023-02-02T04:24:04;101672.34;;;6.43;100.00
5996;BME280;3026;53.612;7.278;2023-02-02T04:26:31;101663.50;;;6.41;100.00
5996;BME280;3026;53.612;7.278;2023-02-02T04:29:00;101663.50;;;6.41;100.00
5996;BME280;3026;53.612;7.278;2023-02-02T04:31:26;101660.03;;;6.39;100.00
5996;BME280;3026;53.612;7.278;2023-02-02T04:33:54;101667.31;;;6.39;100.00
5996;BME280;3026;53.612;7.278;2023-02-02T04:36:22;101672.84;;;6.37;100.00
5996;BME280;3026;53.612;7.278;2023-02-02T04:38:49;101661.25;;;6.35;100.00
5996;BME280;3026;53.612;7.278;2023-02-02T04:41:17;101669.66;;;6.32;100.00
5996;BME280;3026;53.612;7.278;2023-02-02T04:43:44;101674.06;;;6.33;100.00
5996;BME280;3026;53.612;7.278;2023-02-02T04:46:13;101672.47;;;6.31;100.00
5996;BME280;3026;53.612;7.278;2023-02-02T04:48:40;101675.31;;;6.29;100.00
5996;BME280;3026;53.612;7.278;2023-02-02T04:51:09;101662.78;;;6.28;100.00
5996;BME280;3026;53.612;7.278;2023-02-02T04:53:37;101678.16;;;6.28;100.00
5996;BME280;3026;53.612;7.278;2023-02-02T04:56:05;101670.53;;;6.22;100.00
5996;BME280;3026;53.612;7.278;2023-02-02T04:58:32;101675.59;;;6.26;100.00
5996;BME280;3026;53.612;7.278;2023-02-02T05:00:59;101680.22;;;6.24;100.00
5996;BME280;3026;53.612;7.278;2023-02-02T05:03:28;101678.38;;;6.25;100.00
5996;BME280;3026;53.612;7.278;2023-02-02T05:06:00;101681.22;;;6.23;100.00
5996;BME280;3026;53.612;7.278;2023-02-02T05:08:27;101691.31;;;6.21;100.00
5996;BME280;3026;53.612;7.278;2023-02-02T05:10:54;101691.44;;;6.20;100.00
5996;BME280;3026;53.612;7.278;2023-02-02T05:13:21;101683.44;;;6.18;100.00
5996;BME280;3026;53.612;7.278;2023-02-02T05:15:49;101694.28;;;6.18;100.00
5996;BME280;3026;53.612;7.278;2023-02-02T05:18:16;101693.44;;;6.18;100.00
5996;BME280;3026;53.612;7.278;2023-02-02T05:20:44;101681.09;;;6.13;100.00
5996;BME280;3026;53.612;7.278;2023-02-02T05:23:11;101681.72;;;6.17;100.00
5996;BME280;3026;53.612;7.278;2023-02-02T05:25:38;101690.59;;;6.19;100.00
5996;BME280;3026;53.612;7.278;2023-02-02T05:28:04;101697.72;;;6.20;100.00
5996;BME280;3026;53.612;7.278;2023-02-02T05:30:31;101698.34;;;6.24;100.00
5996;BME280;3026;53.612;7.278;2023-02-02T05:32:59;101702.88;;;6.23;100.00
5996;BME280;3026;53.612;7.278;2023-02-02T05:35:26;101700.69;;;6.28;100.00
5996;BME280;3026;53.612;7.278;2023-02-02T05:37:54;101695.53;;;6.25;100.00
5996;BME280;3026;53.612;7.278;2023-02-02T05:40:21;101708.09;;;6.26;100.00
5996;BME280;3026;53.612;7.278;2023-02-02T05:42:48;101697.47;;;6.23;100.00
5996;BME280;3026;53.612;7.278;2023-02-02T05:45:15;101704.88;;;6.21;100.00
5996;BME280;3026;53.612;7.278;2023-02-02T05:47:41;101706.84;;;6.19;100.00
5996;BME280;3026;53.612;7.278;2023-02-02T05:50:09;101715.09;;;6.18;100.00
5996;BME280;3026;53.612;7.278;2023-02-02T05:52:36;101705.38;;;6.15;100.00
5996;BME280;3026;53.612;7.278;2023-02-02T05:55:08;101719.00;;;6.13;100.00
5996;BME280;3026;53.612;7.278;2023-02-02T05:57:35;101716.22;;;6.15;100.00
5996;BME280;3026;53.612;7.278;2023-02-02T06:00:04;101719.78;;;6.16;100.00
5996;BME280;3026;53.612;7.278;2023-02-02T06:02:32;101716.44;;;6.12;100.00
5996;BME280;3026;53.612;7.278;2023-02-02T06:04:59;101718.91;;;6.15;100.00
5996;BME280;3026;53.612;7.278;2023-02-02T06:07:26;101715.34;;;6.14;100.00
5996;BME280;3026;53.612;7.278;2023-02-02T06:09:53;101720.75;;;6.14;100.00
5996;BME280;3026;53.612;7.278;2023-02-02T06:12:22;101711.38;;;6.07;100.00
5996;BME280;3026;53.612;7.278;2023-02-02T06:14:49;101716.44;;;6.12;100.00
5996;BME280;3026;53.612;7.278;2023-02-02T06:17:16;101718.16;;;6.13;100.00
5996;BME280;3026;53.612;7.278;2023-02-02T06:19:43;101721.84;;;6.12;100.00
5996;BME280;3026;53.612;7.278;2023-02-02T06:22:10;101728.97;;;6.13;100.00
5996;BME280;3026;53.612;7.278;2023-02-02T06:24:36;101727.25;;;6.12;100.00
5996;BME280;3026;53.612;7.278;2023-02-02T06:27:04;101736.38;;;6.11;100.00
5996;BME280;3026;53.612;7.278;2023-02-02T06:29:32;101732.06;;;6.08;100.00
5996;BME280;3026;53.612;7.278;2023-02-02T06:31:59;101729.72;;;6.04;100.00
5996;BME280;3026;53.612;7.278;2023-02-02T06:34:26;101733.91;;;6.08;100.00
5996;BME280;3026;53.612;7.278;2023-02-02T06:36:53;101745.13;;;6.03;100.00
5996;BME280;3026;53.612;7.278;2023-02-02T06:39:20;101743.28;;;6.04;100.00
5996;BME280;3026;53.612;7.278;2023-02-02T06:41:46;101741.78;;;6.00;100.00
5996;BME280;3026;53.612;7.278;2023-02-02T06:44:13;101740.78;;;6.01;100.00
5996;BME280;3026;53.612;7.278;2023-02-02T06:46:42;101751.88;;;5.98;100.00
5996;BME280;3026;53.612;7.278;2023-02-02T06:49:09;101753.84;;;5.96;100.00
5996;BME280;3026;53.612;7.278;2023-02-02T06:51:35;101751.50;;;5.91;100.00
5996;BME280;3026;53.612;7.278;2023-02-02T06:54:02;101753.09;;;5.94;100.00
5996;BME280;3026;53.612;7.278;2023-02-02T06:56:29;101756.06;;;5.91;100.00
5996;BME280;3026;53.612;7.278;2023-02-02T06:58:56;101755.25;;;5.89;100.00
5996;BME280;3026;53.612;7.278;2023-02-02T07:01:23;101767.75;;;5.91;100.00
5996;BME280;3026;53.612;7.278;2023-02-02T07:03:52;101765.09;;;5.90;100.00
5996;BME280;3026;53.612;7.278;2023-02-02T07:06:20;101773.22;;;5.90;100.00
5996;BME280;3026;53.612;7.278;2023-02-02T07:08:48;101775.91;;;5.90;100.00
5996;BME280;3026;53.612;7.278;2023-02-02T07:11:16;101778.88;;;5.86;100.00
5996;BME280;3026;53.612;7.278;2023-02-02T07:13:44;101776.41;;;5.83;100.00
5996;BME280;3026;53.612;7.278;2023-02-02T07:16:11;101782.69;;;5.84;100.00
5996;BME280;3026;53.612;7.278;2023-02-02T07:18:38;101787.25;;;5.83;100.00
5996;BME280;3026;53.612;7.278;2023-02-02T07:21:08;101787.25;;;5.83;100.00
5996;BME280;3026;53.612;7.278;2023-02-02T07:23:40;101798.06;;;5.83;100.00
5996;BME280;3026;53.612;7.278;2023-02-02T07:26:09;101801.53;;;5.85;100.00
5996;BME280;3026;53.612;7.278;2023-02-02T07:28:36;101795.38;;;5.83;100.00
5996;BME280;3026;53.612;7.278;2023-02-02T07:31:11;101806.94;;;5.85;100.00
5996;BME280;3026;53.612;7.278;2023-02-02T07:33:40;101800.78;;;5.83;100.00
5996;BME280;3026;53.612;7.278;2023-02-02T07:36:08;101809.50;;;5.87;100.00
5996;BME280;3026;53.612;7.278;2023-02-02T07:38:36;101812.09;;;5.89;100.00
5996;BME280;3026;53.612;7.278;2023-02-02T07:41:03;101816.66;;;5.88;100.00
5996;BME280;3026;53.612;7.278;2023-02-02T07:43:30;101808.66;;;5.86;100.00
5996;BME280;3026;53.612;7.278;2023-02-02T07:45:58;101821.94;;;5.90;100.00
5996;BME280;3026;53.612;7.278;2023-02-02T07:48:27;101826.44;;;5.91;100.00
5996;BME280;3026;53.612;7.278;2023-02-02T07:50:57;101824.66;;;5.90;100.00
5996;BME280;3026;53.612;7.278;2023-02-02T07:53:27;101833.31;;;5.95;100.00
5996;BME280;3026;53.612;7.278;2023-02-02T07:56:07;101832.47;;;5.94;100.00
5996;BME280;3026;53.612;7.278;2023-02-02T07:58:34;101843.91;;;5.98;100.00
5996;BME280;3026;53.612;7.278;2023-02-02T08:01:02;101846.38;;;6.01;100.00
5996;BME280;3026;53.612;7.278;2023-02-02T08:03:29;101849.72;;;6.04;100.00
5996;BME280;3026;53.612;7.278;2023-02-02T08:05:56;101843.22;;;6.07;100.00
5996;BME280;3026;53.612;7.278;2023-02-02T08:08:24;101845.19;;;6.05;100.00
5996;BME280;3026;53.612;7.278;2023-02-02T08:10:53;101846.66;;;6.09;100.00
5996;BME280;3026;53.612;7.278;2023-02-02T08:13:20;101864.16;;;6.16;100.00
5996;BME280;3026;53.612;7.278;2023-02-02T08:15:47;101850.25;;;6.21;100.00
5996;BME280;3026;53.612;7.278;2023-02-02T08:18:14;101865.19;;;6.26;100.00
5996;BME280;3026;53.612;7.278;2023-02-02T08:20:41;101863.22;;;6.28;100.00
5996;BME280;3026;53.612;7.278;2023-02-02T08:23:08;101863.69;;;6.33;100.00
5996;BME280;3026;53.612;7.278;2023-02-02T08:25:40;101855.31;;;6.36;100.00
5996;BME280;3026;53.612;7.278;2023-02-02T08:28:08;101860.38;;;6.41;100.00
5996;BME280;3026;53.612;7.278;2023-02-02T08:30:35;101857.44;;;6.44;100.00
5996;BME280;3026;53.612;7.278;2023-02-02T08:33:02;101856.56;;;6.43;100.00
5996;BME280;3026;53.612;7.278;2023-02-02T08:35:29;101859.81;;;6.49;100.00
5996;BME280;3026;53.612;7.278;2023-02-02T08:37:56;101872.72;;;6.56;100.00
5996;BME280;3026;53.612;7.278;2023-02-02T08:40:27;101881.25;;;6.63;100.00
5996;BME280;3026;53.612;7.278;2023-02-02T08:42:54;101874.09;;;6.62;100.00
5996;BME280;3026;53.612;7.278;2023-02-02T08:45:22;101874.31;;;6.70;100.00
5996;BME280;3026;53.612;7.278;2023-02-02T08:47:50;101875.56;;;6.77;100.00
5996;BME280;3026;53.612;7.278;2023-02-02T08:50:17;101882.84;;;6.77;100.00
5996;BME280;3026;53.612;7.278;2023-02-02T08:52:44;101886.81;;;6.84;100.00
5996;BME280;3026;53.612;7.278;2023-02-02T08:55:11;101885.44;;;6.89;100.00
5996;BME280;3026;53.612;7.278;2023-02-02T08:57:39;101886.28;;;6.90;100.00
5996;BME280;3026;53.612;7.278;2023-02-02T09:00:07;101896.75;;;6.94;100.00
5996;BME280;3026;53.612;7.278;2023-02-02T09:02:35;101896.41;;;6.99;100.00
5996;BME280;3026;53.612;7.278;2023-02-02T09:05:02;101901.81;;;6.99;100.00
5996;BME280;3026;53.612;7.278;2023-02-02T09:07:30;101908.72;;;7.03;100.00
5996;BME280;3026;53.612;7.278;2023-02-02T09:09:57;101899.00;;;7.00;100.00
5996;BME280;3026;53.612;7.278;2023-02-02T09:12:25;101913.03;;;7.06;100.00
5996;BME280;3026;53.612;7.278;2023-02-02T09:14:51;101922.16;;;7.05;100.00
5996;BME280;3026;53.612;7.278;2023-02-02T09:17:18;101923.88;;;7.06;100.00
5996;BME280;3026;53.612;7.278;2023-02-02T09:19:46;101925.38;;;7.10;100.00
5996;BME280;3026;53.612;7.278;2023-02-02T09:22:13;101919.94;;;7.10;100.00
5996;BME280;3026;53.612;7.278;2023-02-02T09:24:41;101925.13;;;7.13;100.00
5996;BME280;3026;53.612;7.278;2023-02-02T09:27:07;101926.72;;;7.15;100.00
5996;BME280;3026;53.612;7.278;2023-02-02T09:29:35;101929.41;;;7.15;100.00
5996;BME280;3026;53.612;7.278;2023-02-02T09:32:02;101917.72;;;7.15;100.00
5996;BME280;3026;53.612;7.278;2023-02-02T09:34:29;101924.38;;;7.22;100.00
5996;BME280;3026;53.612;7.278;2023-02-02T09:36:57;101928.81;;;7.23;100.00
5996;BME280;3026;53.612;7.278;2023-02-02T09:39:24;101941.25;;;7.25;100.00
5996;BME280;3026;53.612;7.278;2023-02-02T09:42:20;101949.03;;;7.30;100.00
5996;BME280;3026;53.612;7.278;2023-02-02T09:45:04;101939.91;;;7.31;100.00
5996;BME280;3026;53.612;7.278;2023-02-02T09:47:49;101945.34;;;7.31;100.00
5996;BME280;3026;53.612;7.278;2023-02-02T09:50:21;101960.00;;;7.40;100.00
5996;BME280;3026;53.612;7.278;2023-02-02T09:52:58;101962.34;;;7.44;100.00
5996;BME280;3026;53.612;7.278;2023-02-02T09:55:32;101964.81;;;7.47;100.00
5996;BME280;3026;53.612;7.278;2023-02-02T09:58:07;101966.25;;;7.51;100.00
5996;BME280;3026;53.612;7.278;2023-02-02T10:00:42;101968.50;;;7.57;100.00
5996;BME280;3026;53.612;7.278;2023-02-02T10:03:15;101975.38;;;7.61;100.00
5996;BME280;3026;53.612;7.278;2023-02-02T10:05:47;101976.38;;;7.60;100.00
5996;BME280;3026;53.612;7.278;2023-02-02T10:08:26;101981.53;;;7.64;100.00
5996;BME280;3026;53.612;7.278;2023-02-02T10:10:58;101991.19;;;7.68;100.00
5996;BME280;3026;53.612;7.278;2023-02-02T10:13:30;101985.50;;;7.71;100.00
5996;BME280;3026;53.612;7.278;2023-02-02T10:16:03;101981.06;;;7.70;100.00
5996;BME280;3026;53.612;7.278;2023-02-02T10:18:41;101992.38;;;7.75;100.00
5996;BME280;3026;53.612;7.278;2023-02-02T10:21:23;101995.88;;;7.77;100.00
5996;BME280;3026;53.612;7.278;2023-02-02T10:23:54;101991.91;;;7.81;100.00
5996;BME280;3026;53.612;7.278;2023-02-02T10:26:27;101991.63;;;7.84;100.00
5996;BME280;3026;53.612;7.278;2023-02-02T10:29:07;101991.63;;;7.84;100.00
5996;BME280;3026;53.612;7.278;2023-02-02T10:31:42;101981.75;;;7.83;100.00
5996;BME280;3026;53.612;7.278;2023-02-02T10:34:16;102000.28;;;7.89;100.00
5996;BME280;3026;53.612;7.278;2023-02-02T10:36:59;102003.13;;;7.87;100.00
5996;BME280;3026;53.612;7.278;2023-02-02T10:39:38;101995.72;;;7.89;100.00
5996;BME280;3026;53.612;7.278;2023-02-02T10:42:20;102000.88;;;7.93;100.00
5996;BME280;3026;53.612;7.278;2023-02-02T10:44:51;102006.91;;;7.96;100.00
5996;BME280;3026;53.612;7.278;2023-02-02T10:47:24;102027.66;;;7.97;100.00
5996;BME280;3026;53.612;7.278;2023-02-02T10:50:00;102026.44;;;8.01;100.00
5996;BME280;3026;53.612;7.278;2023-02-02T10:52:32;102027.41;;;8.00;100.00
5996;BME280;3026;53.612;7.278;2023-02-02T10:55:04;102024.16;;;8.06;100.00
5996;BME280;3026;53.612;7.278;2023-02-02T10:57:42;102022.44;;;8.05;100.00
5996;BME280;3026;53.612;7.278;2023-02-02T11:00:18;102029.88;;;8.03;100.00
5996;BME280;3026;53.612;7.278;2023-02-02T11:02:46;102035.31;;;8.03;100.00
5996;BME280;3026;53.612;7.278;2023-02-02T11:05:18;102048.50;;;8.08;100.00
5996;BME280;3026;53.612;7.278;2023-02-02T11:08:11;102042.19;;;8.07;100.00
5996;BME280;3026;53.612;7.278;2023-02-02T11:10:40;102053.78;;;8.09;100.00
5996;BME280;3026;53.612;7.278;2023-02-02T11:13:13;102050.13;;;8.10;100.00
5996;BME280;3026;53.612;7.278;2023-02-02T11:15:41;102044.19;;;8.05;100.00
5996;BME280;3026;53.612;7.278;2023-02-02T11:18:13;102047.03;;;8.04;100.00
5996;BME280;3026;53.612;7.278;2023-02-02T11:20:50;102050.59;;;8.04;100.00
5996;BME280;3026;53.612;7.278;2023-02-02T11:23:25;102052.47;;;8.04;100.00
5996;BME280;3026;53.612;7.278;2023-02-02T11:25:59;102060.22;;;8.08;100.00
5996;BME280;3026;53.612;7.278;2023-02-02T11:28:31;102054.78;;;8.08;100.00
5996;BME280;3026;53.612;7.278;2023-02-02T11:30:59;102042.19;;;8.07;100.00
5996;BME280;3026;53.612;7.278;2023-02-02T11:33:28;102051.84;;;8.11;100.00
5996;BME280;3026;53.612;7.278;2023-02-02T11:36:00;102046.59;;;8.19;100.00
5996;BME280;3026;53.612;7.278;2023-02-02T11:38:28;102048.09;;;8.24;100.00
5996;BME280;3026;53.612;7.278;2023-02-02T11:40:58;102042.13;;;8.30;100.00
5996;BME280;3026;53.612;7.278;2023-02-02T11:43:33;102040.69;;;8.26;100.00
5996;BME280;3026;53.612;7.278;2023-02-02T11:46:12;102034.13;;;8.28;100.00
5996;BME280;3026;53.612;7.278;2023-02-02T11:48:47;102032.75;;;8.34;100.00
5996;BME280;3026;53.612;7.278;2023-02-02T11:51:21;102040.81;;;8.35;100.00
5996;BME280;3026;53.612;7.278;2023-02-02T11:54:00;102039.09;;;8.34;100.00
5996;BME280;3026;53.612;7.278;2023-02-02T11:56:29;102040.16;;;8.32;100.00
5996;BME280;3026;53.612;7.278;2023-02-02T11:58:56;102033.84;;;8.31;100.00
5996;BME280;3026;53.612;7.278;2023-02-02T12:01:28;102036.69;;;8.30;100.00
5996;BME280;3026;53.612;7.278;2023-02-02T12:03:57;102031.53;;;8.27;100.00
5996;BME280;3026;53.612;7.278;2023-02-02T12:06:33;102034.50;;;8.24;100.00
5996;BME280;3026;53.612;7.278;2023-02-02T12:09:08;102026.59;;;8.20;100.00
5996;BME280;3026;53.612;7.278;2023-02-02T12:11:45;102037.00;;;8.15;100.00
5996;BME280;3026;53.612;7.278;2023-02-02T12:14:27;102031.09;;;8.10;100.00
5996;BME280;3026;53.612;7.278;2023-02-02T12:17:06;102026.75;;;8.08;100.00
5996;BME280;3026;53.612;7.278;2023-02-02T12:20:14;102028.88;;;8.04;100.00
5996;BME280;3026;53.612;7.278;2023-02-02T12:23:02;102036.91;;;8.06;100.00
5996;BME280;3026;53.612;7.278;2023-02-02T12:25:46;102040.22;;;8.09;100.00
5996;BME280;3026;53.612;7.278;2023-02-02T12:28:29;102038.50;;;8.08;100.00
5996;BME280;3026;53.612;7.278;2023-02-02T12:31:06;102039.34;;;8.09;100.00
5996;BME280;3026;53.612;7.278;2023-02-02T12:33:41;102038.75;;;8.05;100.00
5996;BME280;3026;53.612;7.278;2023-02-02T12:36:22;102050.34;;;8.07;100.00
5996;BME280;3026;53.612;7.278;2023-02-02T12:39:15;102037.88;;;8.05;100.00
5996;BME280;3026;53.612;7.278;2023-02-02T12:41:56;102041.06;;;8.10;100.00
5996;BME280;3026;53.612;7.278;2023-02-02T12:44:32;102036.00;;;8.16;100.00
5996;BME280;3026;53.612;7.278;2023-02-02T12:47:13;102032.03;;;8.20;100.00
5996;BME280;3026;53.612;7.278;2023-02-02T12:50:14;102041.16;;;8.19;100.00
5996;BME280;3026;53.612;7.278;2023-02-02T12:53:00;102040.31;;;8.19;100.00
5996;BME280;3026;53.612;7.278;2023-02-02T12:55:38;102037.47;;;8.20;100.00
5996;BME280;3026;53.612;7.278;2023-02-02T12:58:17;102034.66;;;8.22;100.00
5996;BME280;3026;53.612;7.278;2023-02-02T13:01:21;102034.00;;;8.18;100.00
5996;BME280;3026;53.612;7.278;2023-02-02T13:04:17;102018.25;;;8.12;100.00
5996;BME280;3026;53.612;7.278;2023-02-02T13:07:05;102031.44;;;8.17;100.00
5996;BME280;3026;53.612;7.278;2023-02-02T13:09:41;102021.81;;;8.13;100.00
5996;BME280;3026;53.612;7.278;2023-02-02T13:12:13;102018.97;;;8.14;100.00
5996;BME280;3026;53.612;7.278;2023-02-02T13:14:44;102014.28;;;8.16;100.00
5996;BME280;3026;53.612;7.278;2023-02-02T13:17:16;102013.78;;;8.23;100.00
5996;BME280;3026;53.612;7.278;2023-02-02T13:19:48;102025.81;;;8.30;100.00
5996;BME280;3026;53.612;7.278;2023-02-02T13:22:21;102010.06;;;8.24;100.00
5996;BME280;3026;53.612;7.278;2023-02-02T13:24:52;102022.25;;;8.29;100.00
5996;BME280;3026;53.612;7.278;2023-02-02T13:27:22;102016.22;;;8.26;100.00
5996;BME280;3026;53.612;7.278;2023-02-02T13:29:53;102022.38;;;8.28;100.00
5996;BME280;3026;53.612;7.278;2023-02-02T13:32:25;102025.22;;;8.26;100.00
5996;BME280;3026;53.612;7.278;2023-02-02T13:34:56;102020.28;;;8.20;100.00
5996;BME280;3026;53.612;7.278;2023-02-02T13:37:28;102026.59;;;8.20;100.00
5996;BME280;3026;53.612;7.278;2023-02-02T13:39:59;102016.84;;;8.18;100.00